METAR Data
IDs: Format: Raw Decoded Include TAF

Data at: 1333 UTC 14 Dec 2019

METAR for:KSLB (Storm Lake Muni, IA, US)
Text:KSLB 141315Z AUTO 32013KT 10SM BKN019 OVC028 M10/M12 A2991 RMK AO2
Temperature:-10.0°C ( 14°F)
Dewpoint:-12.0°C ( 10°F) [RH = 85%]
Pressure (altimeter):29.91 inches Hg (1013.0 mb)
Winds:from the NW (320 degrees) at 15 MPH (13 knots; 6.7 m/s)
Visibility:10 or more sm (16+ km)
Ceiling:1900 feet AGL
Clouds: broken clouds at 1900 feet AGL, overcast cloud deck at 2800 feet AGL
QC Flag:automated observation with no human augmentation